sensor_id;sensor_type;location;lat;lon;timestamp;P1;durP1;ratioP1;P2;durP2;ratioP2
22107;SDS011;11220;48.812;9.128;2024-03-08T00:00:17;1.08;;;0.98;;
22107;SDS011;11220;48.812;9.128;2024-03-08T00:02:43;1.30;;;0.95;;
22107;SDS011;11220;48.812;9.128;2024-03-08T00:05:12;1.10;;;1.00;;
22107;SDS011;11220;48.812;9.128;2024-03-08T00:07:39;1.30;;;0.80;;
22107;SDS011;11220;48.812;9.128;2024-03-08T00:10:06;1.20;;;1.10;;
22107;SDS011;11220;48.812;9.128;2024-03-08T00:12:43;1.30;;;0.90;;
22107;SDS011;11220;48.812;9.128;2024-03-08T00:15:13;1.65;;;1.00;;
22107;SDS011;11220;48.812;9.128;2024-03-08T00:17:40;0.95;;;0.85;;
22107;SDS011;11220;48.812;9.128;2024-03-08T00:20:06;1.27;;;0.90;;
22107;SDS011;11220;48.812;9.128;2024-03-08T00:22:36;1.60;;;0.90;;
22107;SDS011;11220;48.812;9.128;2024-03-08T00:25:05;1.23;;;1.00;;
22107;SDS011;11220;48.812;9.128;2024-03-08T00:27:35;0.73;;;0.70;;
22107;SDS011;11220;48.812;9.128;2024-03-08T00:30:01;0.90;;;0.90;;
22107;SDS011;11220;48.812;9.128;2024-03-08T00:32:26;1.23;;;0.95;;
22107;SDS011;11220;48.812;9.128;2024-03-08T00:34:52;1.05;;;0.90;;
22107;SDS011;11220;48.812;9.128;2024-03-08T00:37:19;0.98;;;0.88;;
22107;SDS011;11220;48.812;9.128;2024-03-08T00:39:45;1.38;;;1.08;;
22107;SDS011;11220;48.812;9.128;2024-03-08T00:42:10;1.05;;;0.95;;
22107;SDS011;11220;48.812;9.128;2024-03-08T00:44:36;1.40;;;0.90;;
22107;SDS011;11220;48.812;9.128;2024-03-08T00:47:01;0.90;;;0.80;;
22107;SDS011;11220;48.812;9.128;2024-03-08T00:49:28;1.05;;;0.93;;
22107;SDS011;11220;48.812;9.128;2024-03-08T00:51:53;0.90;;;0.80;;
22107;SDS011;11220;48.812;9.128;2024-03-08T00:54:19;0.90;;;0.90;;
22107;SDS011;11220;48.812;9.128;2024-03-08T00:56:44;1.00;;;0.90;;
22107;SDS011;11220;48.812;9.128;2024-03-08T00:59:10;1.10;;;0.90;;
22107;SDS011;11220;48.812;9.128;2024-03-08T01:01:36;1.05;;;0.80;;
22107;SDS011;11220;48.812;9.128;2024-03-08T01:04:01;1.00;;;0.75;;
22107;SDS011;11220;48.812;9.128;2024-03-08T01:06:27;0.77;;;0.77;;
22107;SDS011;11220;48.812;9.128;2024-03-08T01:08:53;0.90;;;0.80;;
22107;SDS011;11220;48.812;9.128;2024-03-08T01:11:18;0.85;;;0.80;;
22107;SDS011;11220;48.812;9.128;2024-03-08T01:13:44;1.05;;;0.90;;
22107;SDS011;11220;48.812;9.128;2024-03-08T01:16:12;1.00;;;0.95;;
22107;SDS011;11220;48.812;9.128;2024-03-08T01:18:37;0.88;;;0.80;;
22107;SDS011;11220;48.812;9.128;2024-03-08T01:21:03;0.63;;;0.63;;
22107;SDS011;11220;48.812;9.128;2024-03-08T01:23:29;1.00;;;0.80;;
22107;SDS011;11220;48.812;9.128;2024-03-08T01:25:55;0.80;;;0.80;;
22107;SDS011;11220;48.812;9.128;2024-03-08T01:28:23;1.35;;;0.90;;
22107;SDS011;11220;48.812;9.128;2024-03-08T01:30:49;1.20;;;0.90;;
22107;SDS011;11220;48.812;9.128;2024-03-08T01:33:20;1.63;;;1.00;;
22107;SDS011;11220;48.812;9.128;2024-03-08T01:35:50;0.80;;;0.80;;
22107;SDS011;11220;48.812;9.128;2024-03-08T01:38:16;0.82;;;0.73;;
22107;SDS011;11220;48.812;9.128;2024-03-08T01:40:42;1.23;;;0.88;;
22107;SDS011;11220;48.812;9.128;2024-03-08T01:45:42;1.08;;;0.90;;
22107;SDS011;11220;48.812;9.128;2024-03-08T01:48:07;1.08;;;0.88;;
22107;SDS011;11220;48.812;9.128;2024-03-08T01:50:33;0.70;;;0.70;;
22107;SDS011;11220;48.812;9.128;2024-03-08T01:52:58;0.75;;;0.73;;
22107;SDS011;11220;48.812;9.128;2024-03-08T01:55:25;1.15;;;1.05;;
22107;SDS011;11220;48.812;9.128;2024-03-08T01:57:50;1.13;;;0.90;;
22107;SDS011;11220;48.812;9.128;2024-03-08T02:00:16;1.00;;;0.90;;
22107;SDS011;11220;48.812;9.128;2024-03-08T02:02:44;1.08;;;0.98;;
22107;SDS011;11220;48.812;9.128;2024-03-08T02:05:13;0.68;;;0.68;;
22107;SDS011;11220;48.812;9.128;2024-03-08T02:07:42;1.10;;;0.80;;
22107;SDS011;11220;48.812;9.128;2024-03-08T02:10:11;0.90;;;0.82;;
22107;SDS011;11220;48.812;9.128;2024-03-08T02:12:37;0.95;;;0.85;;
22107;SDS011;11220;48.812;9.128;2024-03-08T02:15:03;1.17;;;0.70;;
22107;SDS011;11220;48.812;9.128;2024-03-08T02:17:31;1.20;;;1.00;;
22107;SDS011;11220;48.812;9.128;2024-03-08T02:19:58;0.75;;;0.70;;
22107;SDS011;11220;48.812;9.128;2024-03-08T02:22:26;0.85;;;0.75;;
22107;SDS011;11220;48.812;9.128;2024-03-08T02:24:53;1.25;;;0.95;;
22107;SDS011;11220;48.812;9.128;2024-03-08T02:27:23;1.08;;;0.82;;
22107;SDS011;11220;48.812;9.128;2024-03-08T02:29:50;1.00;;;0.80;;
22107;SDS011;11220;48.812;9.128;2024-03-08T02:32:20;0.80;;;0.80;;
22107;SDS011;11220;48.812;9.128;2024-03-08T02:34:47;0.95;;;0.80;;
22107;SDS011;11220;48.812;9.128;2024-03-08T02:37:12;0.70;;;0.70;;
22107;SDS011;11220;48.812;9.128;2024-03-08T02:39:38;0.70;;;0.70;;
22107;SDS011;11220;48.812;9.128;2024-03-08T02:42:03;1.20;;;0.77;;
22107;SDS011;11220;48.812;9.128;2024-03-08T02:44:29;0.80;;;0.70;;
22107;SDS011;11220;48.812;9.128;2024-03-08T02:46:54;0.98;;;0.90;;
22107;SDS011;11220;48.812;9.128;2024-03-08T02:49:20;0.75;;;0.75;;
22107;SDS011;11220;48.812;9.128;2024-03-08T02:51:46;0.70;;;0.70;;
22107;SDS011;11220;48.812;9.128;2024-03-08T02:54:11;0.85;;;0.85;;
22107;SDS011;11220;48.812;9.128;2024-03-08T02:56:37;0.70;;;0.70;;
22107;SDS011;11220;48.812;9.128;2024-03-08T02:59:02;0.73;;;0.73;;
22107;SDS011;11220;48.812;9.128;2024-03-08T03:01:28;1.20;;;0.70;;
22107;SDS011;11220;48.812;9.128;2024-03-08T03:03:54;0.90;;;0.70;;
22107;SDS011;11220;48.812;9.128;2024-03-08T03:06:19;0.93;;;0.70;;
22107;SDS011;11220;48.812;9.128;2024-03-08T03:08:46;1.15;;;0.80;;
22107;SDS011;11220;48.812;9.128;2024-03-08T03:11:11;0.90;;;0.90;;
22107;SDS011;11220;48.812;9.128;2024-03-08T03:13:38;0.88;;;0.70;;
22107;SDS011;11220;48.812;9.128;2024-03-08T03:16:04;0.93;;;0.70;;
22107;SDS011;11220;48.812;9.128;2024-03-08T03:18:30;0.95;;;0.80;;
22107;SDS011;11220;48.812;9.128;2024-03-08T03:20:57;0.95;;;0.85;;
22107;SDS011;11220;48.812;9.128;2024-03-08T03:23:23;1.00;;;0.80;;
22107;SDS011;11220;48.812;9.128;2024-03-08T03:25:51;0.73;;;0.68;;
22107;SDS011;11220;48.812;9.128;2024-03-08T03:28:17;0.93;;;0.80;;
22107;SDS011;11220;48.812;9.128;2024-03-08T03:30:44;0.80;;;0.80;;
22107;SDS011;11220;48.812;9.128;2024-03-08T03:33:11;0.70;;;0.70;;
22107;SDS011;11220;48.812;9.128;2024-03-08T03:35:37;0.90;;;0.80;;
22107;SDS011;11220;48.812;9.128;2024-03-08T03:38:03;1.38;;;0.73;;
22107;SDS011;11220;48.812;9.128;2024-03-08T03:40:35;1.15;;;0.90;;
22107;SDS011;11220;48.812;9.128;2024-03-08T03:43:01;0.65;;;0.65;;
22107;SDS011;11220;48.812;9.128;2024-03-08T03:45:28;1.30;;;1.00;;
22107;SDS011;11220;48.812;9.128;2024-03-08T03:47:54;1.25;;;0.90;;
22107;SDS011;11220;48.812;9.128;2024-03-08T03:50:20;0.82;;;0.70;;
22107;SDS011;11220;48.812;9.128;2024-03-08T03:52:47;0.93;;;0.80;;
22107;SDS011;11220;48.812;9.128;2024-03-08T03:55:13;0.70;;;0.70;;
22107;SDS011;11220;48.812;9.128;2024-03-08T03:57:39;1.10;;;0.85;;
22107;SDS011;11220;48.812;9.128;2024-03-08T04:00:06;1.00;;;0.90;;
22107;SDS011;11220;48.812;9.128;2024-03-08T04:02:35;0.85;;;0.82;;
22107;SDS011;11220;48.812;9.128;2024-03-08T04:05:02;0.70;;;0.70;;
22107;SDS011;11220;48.812;9.128;2024-03-08T04:07:28;1.10;;;0.80;;
22107;SDS011;11220;48.812;9.128;2024-03-08T04:09:53;1.15;;;0.80;;
22107;SDS011;11220;48.812;9.128;2024-03-08T04:12:19;1.50;;;0.90;;
22107;SDS011;11220;48.812;9.128;2024-03-08T04:14:44;1.38;;;0.80;;
22107;SDS011;11220;48.812;9.128;2024-03-08T04:17:10;0.88;;;0.80;;
22107;SDS011;11220;48.812;9.128;2024-03-08T04:19:38;0.55;;;0.50;;
22107;SDS011;11220;48.812;9.128;2024-03-08T04:22:05;1.00;;;0.90;;
22107;SDS011;11220;48.812;9.128;2024-03-08T04:24:32;1.23;;;0.80;;
22107;SDS011;11220;48.812;9.128;2024-03-08T04:26:58;0.80;;;0.80;;
22107;SDS011;11220;48.812;9.128;2024-03-08T04:29:24;0.98;;;0.77;;
22107;SDS011;11220;48.812;9.128;2024-03-08T04:31:49;0.88;;;0.70;;
22107;SDS011;11220;48.812;9.128;2024-03-08T04:34:19;1.15;;;0.88;;
22107;SDS011;11220;48.812;9.128;2024-03-08T04:36:46;0.70;;;0.70;;
22107;SDS011;11220;48.812;9.128;2024-03-08T04:39:12;0.70;;;0.63;;
22107;SDS011;11220;48.812;9.128;2024-03-08T04:41:38;0.70;;;0.70;;
22107;SDS011;11220;48.812;9.128;2024-03-08T04:44:04;1.05;;;0.80;;
22107;SDS011;11220;48.812;9.128;2024-03-08T04:46:30;0.75;;;0.70;;
22107;SDS011;11220;48.812;9.128;2024-03-08T04:48:56;0.95;;;0.80;;
22107;SDS011;11220;48.812;9.128;2024-03-08T04:51:23;0.55;;;0.55;;
22107;SDS011;11220;48.812;9.128;2024-03-08T04:53:50;0.70;;;0.55;;
22107;SDS011;11220;48.812;9.128;2024-03-08T04:56:15;0.80;;;0.80;;
22107;SDS011;11220;48.812;9.128;2024-03-08T04:58:41;1.05;;;0.73;;
22107;SDS011;11220;48.812;9.128;2024-03-08T05:01:06;0.98;;;0.70;;
22107;SDS011;11220;48.812;9.128;2024-03-08T05:03:35;1.08;;;0.80;;
22107;SDS011;11220;48.812;9.128;2024-03-08T05:06:00;1.10;;;0.75;;
22107;SDS011;11220;48.812;9.128;2024-03-08T05:08:26;1.08;;;0.70;;
22107;SDS011;11220;48.812;9.128;2024-03-08T05:10:51;0.73;;;0.70;;
22107;SDS011;11220;48.812;9.128;2024-03-08T05:13:17;1.02;;;0.70;;
22107;SDS011;11220;48.812;9.128;2024-03-08T05:15:43;0.88;;;0.70;;
22107;SDS011;11220;48.812;9.128;2024-03-08T05:18:09;1.20;;;0.80;;
22107;SDS011;11220;48.812;9.128;2024-03-08T05:20:36;0.80;;;0.80;;
22107;SDS011;11220;48.812;9.128;2024-03-08T05:23:02;1.00;;;0.73;;
22107;SDS011;11220;48.812;9.128;2024-03-08T05:25:28;1.10;;;0.80;;
22107;SDS011;11220;48.812;9.128;2024-03-08T05:27:53;1.48;;;0.90;;
22107;SDS011;11220;48.812;9.128;2024-03-08T05:30:19;0.70;;;0.70;;
22107;SDS011;11220;48.812;9.128;2024-03-08T05:32:46;0.80;;;0.80;;
22107;SDS011;11220;48.812;9.128;2024-03-08T05:35:12;0.82;;;0.75;;
22107;SDS011;11220;48.812;9.128;2024-03-08T05:37:38;1.25;;;0.70;;
22107;SDS011;11220;48.812;9.128;2024-03-08T05:40:05;0.88;;;0.80;;
22107;SDS011;11220;48.812;9.128;2024-03-08T05:42:37;1.20;;;0.90;;
22107;SDS011;11220;48.812;9.128;2024-03-08T05:45:03;0.70;;;0.60;;
22107;SDS011;11220;48.812;9.128;2024-03-08T05:47:31;1.20;;;0.90;;
22107;SDS011;11220;48.812;9.128;2024-03-08T05:49:57;0.75;;;0.75;;
22107;SDS011;11220;48.812;9.128;2024-03-08T05:52:24;0.88;;;0.70;;
22107;SDS011;11220;48.812;9.128;2024-03-08T05:54:50;0.95;;;0.82;;
22107;SDS011;11220;48.812;9.128;2024-03-08T05:57:16;0.80;;;0.68;;
22107;SDS011;11220;48.812;9.128;2024-03-08T05:59:42;0.70;;;0.70;;
22107;SDS011;11220;48.812;9.128;2024-03-08T06:02:08;0.90;;;0.73;;
22107;SDS011;11220;48.812;9.128;2024-03-08T06:04:33;0.80;;;0.70;;
22107;SDS011;11220;48.812;9.128;2024-03-08T06:06:59;0.77;;;0.75;;
22107;SDS011;11220;48.812;9.128;2024-03-08T06:09:25;0.60;;;0.60;;
22107;SDS011;11220;48.812;9.128;2024-03-08T06:11:51;0.68;;;0.60;;
22107;SDS011;11220;48.812;9.128;2024-03-08T06:14:17;0.70;;;0.70;;
22107;SDS011;11220;48.812;9.128;2024-03-08T06:16:44;1.05;;;0.80;;
22107;SDS011;11220;48.812;9.128;2024-03-08T06:19:10;0.80;;;0.70;;
22107;SDS011;11220;48.812;9.128;2024-03-08T06:21:35;0.60;;;0.60;;
22107;SDS011;11220;48.812;9.128;2024-03-08T06:24:01;0.90;;;0.60;;
22107;SDS011;11220;48.812;9.128;2024-03-08T06:26:27;0.50;;;0.50;;
22107;SDS011;11220;48.812;9.128;2024-03-08T06:28:53;0.90;;;0.70;;
22107;SDS011;11220;48.812;9.128;2024-03-08T06:31:19;0.80;;;0.60;;
22107;SDS011;11220;48.812;9.128;2024-03-08T06:33:45;0.77;;;0.68;;
22107;SDS011;11220;48.812;9.128;2024-03-08T06:36:10;0.60;;;0.60;;
22107;SDS011;11220;48.812;9.128;2024-03-08T06:38:37;0.60;;;0.60;;
22107;SDS011;11220;48.812;9.128;2024-03-08T06:41:07;0.75;;;0.60;;
22107;SDS011;11220;48.812;9.128;2024-03-08T06:43:40;0.85;;;0.80;;
22107;SDS011;11220;48.812;9.128;2024-03-08T06:46:06;0.60;;;0.60;;
22107;SDS011;11220;48.812;9.128;2024-03-08T06:48:31;1.42;;;0.70;;
22107;SDS011;11220;48.812;9.128;2024-03-08T06:50:57;0.43;;;0.43;;
22107;SDS011;11220;48.812;9.128;2024-03-08T06:53:22;0.63;;;0.50;;
22107;SDS011;11220;48.812;9.128;2024-03-08T06:55:49;0.57;;;0.50;;
22107;SDS011;11220;48.812;9.128;2024-03-08T06:58:15;0.63;;;0.50;;
22107;SDS011;11220;48.812;9.128;2024-03-08T07:00:41;0.80;;;0.40;;
22107;SDS011;11220;48.812;9.128;2024-03-08T07:03:07;0.60;;;0.55;;
22107;SDS011;11220;48.812;9.128;2024-03-08T07:05:37;0.73;;;0.60;;
22107;SDS011;11220;48.812;9.128;2024-03-08T07:08:02;0.50;;;0.50;;
22107;SDS011;11220;48.812;9.128;2024-03-08T07:10:28;0.88;;;0.50;;
22107;SDS011;11220;48.812;9.128;2024-03-08T07:12:54;0.40;;;0.40;;
22107;SDS011;11220;48.812;9.128;2024-03-08T07:15:20;0.60;;;0.60;;
22107;SDS011;11220;48.812;9.128;2024-03-08T07:17:48;0.60;;;0.60;;
22107;SDS011;11220;48.812;9.128;2024-03-08T07:20:13;0.73;;;0.43;;
22107;SDS011;11220;48.812;9.128;2024-03-08T07:25:10;0.75;;;0.68;;
22107;SDS011;11220;48.812;9.128;2024-03-08T07:27:35;0.80;;;0.63;;
22107;SDS011;11220;48.812;9.128;2024-03-08T07:30:01;0.85;;;0.63;;
22107;SDS011;11220;48.812;9.128;2024-03-08T07:32:27;0.75;;;0.57;;
22107;SDS011;11220;48.812;9.128;2024-03-08T07:34:55;0.75;;;0.50;;
22107;SDS011;11220;48.812;9.128;2024-03-08T07:37:20;0.85;;;0.70;;
22107;SDS011;11220;48.812;9.128;2024-03-08T07:39:46;0.70;;;0.68;;
22107;SDS011;11220;48.812;9.128;2024-03-08T07:42:12;0.73;;;0.60;;
22107;SDS011;11220;48.812;9.128;2024-03-08T07:44:38;0.65;;;0.50;;
22107;SDS011;11220;48.812;9.128;2024-03-08T07:47:03;0.93;;;0.70;;
22107;SDS011;11220;48.812;9.128;2024-03-08T07:49:29;0.47;;;0.47;;
22107;SDS011;11220;48.812;9.128;2024-03-08T07:51:58;1.00;;;0.55;;
22107;SDS011;11220;48.812;9.128;2024-03-08T07:54:24;0.50;;;0.50;;
22107;SDS011;11220;48.812;9.128;2024-03-08T07:56:50;0.60;;;0.60;;
22107;SDS011;11220;48.812;9.128;2024-03-08T07:59:17;0.85;;;0.68;;
22107;SDS011;11220;48.812;9.128;2024-03-08T08:01:43;0.47;;;0.47;;
22107;SDS011;11220;48.812;9.128;2024-03-08T08:04:09;0.60;;;0.50;;
22107;SDS011;11220;48.812;9.128;2024-03-08T08:06:37;0.50;;;0.50;;
22107;SDS011;11220;48.812;9.128;2024-03-08T08:09:05;0.70;;;0.60;;
22107;SDS011;11220;48.812;9.128;2024-03-08T08:11:34;0.65;;;0.40;;
22107;SDS011;11220;48.812;9.128;2024-03-08T08:16:57;0.55;;;0.50;;
22107;SDS011;11220;48.812;9.128;2024-03-08T08:19:25;0.63;;;0.60;;
22107;SDS011;11220;48.812;9.128;2024-03-08T08:21:51;0.60;;;0.50;;
22107;SDS011;11220;48.812;9.128;2024-03-08T08:24:17;0.60;;;0.60;;
22107;SDS011;11220;48.812;9.128;2024-03-08T08:26:42;0.52;;;0.50;;
22107;SDS011;11220;48.812;9.128;2024-03-08T08:29:09;0.95;;;0.68;;
22107;SDS011;11220;48.812;9.128;2024-03-08T08:31:35;0.90;;;0.50;;
22107;SDS011;11220;48.812;9.128;2024-03-08T08:34:01;0.55;;;0.55;;
22107;SDS011;11220;48.812;9.128;2024-03-08T08:36:28;1.00;;;0.52;;
22107;SDS011;11220;48.812;9.128;2024-03-08T08:38:54;0.90;;;0.60;;
22107;SDS011;11220;48.812;9.128;2024-03-08T08:41:21;0.77;;;0.57;;
22107;SDS011;11220;48.812;9.128;2024-03-08T08:43:47;0.60;;;0.57;;
22107;SDS011;11220;48.812;9.128;2024-03-08T08:46:16;0.80;;;0.70;;
22107;SDS011;11220;48.812;9.128;2024-03-08T08:48:42;0.73;;;0.50;;
22107;SDS011;11220;48.812;9.128;2024-03-08T08:51:10;1.05;;;0.60;;
22107;SDS011;11220;48.812;9.128;2024-03-08T08:53:37;0.68;;;0.68;;
22107;SDS011;11220;48.812;9.128;2024-03-08T08:56:05;0.50;;;0.50;;
22107;SDS011;11220;48.812;9.128;2024-03-08T08:58:32;1.50;;;0.60;;
22107;SDS011;11220;48.812;9.128;2024-03-08T09:00:58;0.50;;;0.50;;
22107;SDS011;11220;48.812;9.128;2024-03-08T09:03:24;0.60;;;0.60;;
22107;SDS011;11220;48.812;9.128;2024-03-08T09:05:52;0.50;;;0.50;;
22107;SDS011;11220;48.812;9.128;2024-03-08T09:08:17;0.63;;;0.63;;
22107;SDS011;11220;48.812;9.128;2024-03-08T09:10:43;0.88;;;0.60;;
22107;SDS011;11220;48.812;9.128;2024-03-08T09:13:08;0.60;;;0.52;;
22107;SDS011;11220;48.812;9.128;2024-03-08T09:15:35;0.70;;;0.70;;
22107;SDS011;11220;48.812;9.128;2024-03-08T09:18:01;0.70;;;0.60;;
22107;SDS011;11220;48.812;9.128;2024-03-08T09:20:27;0.65;;;0.45;;
22107;SDS011;11220;48.812;9.128;2024-03-08T09:22:53;0.52;;;0.45;;
22107;SDS011;11220;48.812;9.128;2024-03-08T09:25:19;0.60;;;0.60;;
22107;SDS011;11220;48.812;9.128;2024-03-08T09:27:45;0.70;;;0.50;;
22107;SDS011;11220;48.812;9.128;2024-03-08T09:30:11;0.57;;;0.47;;
22107;SDS011;11220;48.812;9.128;2024-03-08T09:32:38;0.57;;;0.50;;
22107;SDS011;11220;48.812;9.128;2024-03-08T09:35:03;0.40;;;0.40;;
22107;SDS011;11220;48.812;9.128;2024-03-08T09:37:32;0.68;;;0.60;;
22107;SDS011;11220;48.812;9.128;2024-03-08T09:39:59;0.50;;;0.50;;
22107;SDS011;11220;48.812;9.128;2024-03-08T09:42:24;0.50;;;0.50;;
22107;SDS011;11220;48.812;9.128;2024-03-08T09:44:50;0.60;;;0.60;;
22107;SDS011;11220;48.812;9.128;2024-03-08T09:47:16;0.65;;;0.40;;
22107;SDS011;11220;48.812;9.128;2024-03-08T09:49:47;0.35;;;0.35;;
22107;SDS011;11220;48.812;9.128;2024-03-08T09:52:13;0.60;;;0.50;;
22107;SDS011;11220;48.812;9.128;2024-03-08T09:54:40;0.88;;;0.50;;
22107;SDS011;11220;48.812;9.128;2024-03-08T09:57:09;0.60;;;0.57;;
22107;SDS011;11220;48.812;9.128;2024-03-08T09:59:35;0.50;;;0.40;;
22107;SDS011;11220;48.812;9.128;2024-03-08T10:02:01;0.50;;;0.50;;
22107;SDS011;11220;48.812;9.128;2024-03-08T10:04:28;0.60;;;0.50;;
22107;SDS011;11220;48.812;9.128;2024-03-08T10:06:55;0.98;;;0.52;;
22107;SDS011;11220;48.812;9.128;2024-03-08T10:11:56;0.60;;;0.50;;
22107;SDS011;11220;48.812;9.128;2024-03-08T10:14:22;0.60;;;0.60;;
22107;SDS011;11220;48.812;9.128;2024-03-08T10:16:48;0.85;;;0.70;;
22107;SDS011;11220;48.812;9.128;2024-03-08T10:19:14;0.60;;;0.52;;
22107;SDS011;11220;48.812;9.128;2024-03-08T10:21:47;0.50;;;0.50;;
22107;SDS011;11220;48.812;9.128;2024-03-08T10:24:14;0.70;;;0.52;;
22107;SDS011;11220;48.812;9.128;2024-03-08T10:26:39;0.55;;;0.50;;
22107;SDS011;11220;48.812;9.128;2024-03-08T10:29:05;0.55;;;0.52;;
22107;SDS011;11220;48.812;9.128;2024-03-08T10:31:32;0.63;;;0.43;;
22107;SDS011;11220;48.812;9.128;2024-03-08T10:33:58;0.88;;;0.50;;
22107;SDS011;11220;48.812;9.128;2024-03-08T10:36:23;0.50;;;0.50;;
22107;SDS011;11220;48.812;9.128;2024-03-08T10:38:50;0.82;;;0.60;;
22107;SDS011;11220;48.812;9.128;2024-03-08T10:41:18;0.50;;;0.50;;
22107;SDS011;11220;48.812;9.128;2024-03-08T10:46:46;0.55;;;0.50;;
22107;SDS011;11220;48.812;9.128;2024-03-08T10:49:16;0.60;;;0.55;;
22107;SDS011;11220;48.812;9.128;2024-03-08T10:51:42;0.80;;;0.60;;
22107;SDS011;11220;48.812;9.128;2024-03-08T10:54:09;1.27;;;0.60;;
22107;SDS011;11220;48.812;9.128;2024-03-08T10:56:36;0.40;;;0.40;;
22107;SDS011;11220;48.812;9.128;2024-03-08T10:59:02;1.02;;;0.63;;
22107;SDS011;11220;48.812;9.128;2024-03-08T11:01:29;0.77;;;0.35;;
22107;SDS011;11220;48.812;9.128;2024-03-08T11:03:55;0.40;;;0.40;;
22107;SDS011;11220;48.812;9.128;2024-03-08T11:06:22;0.60;;;0.50;;
22107;SDS011;11220;48.812;9.128;2024-03-08T11:08:55;0.50;;;0.50;;
22107;SDS011;11220;48.812;9.128;2024-03-08T11:11:27;1.25;;;0.50;;
22107;SDS011;11220;48.812;9.128;2024-03-08T11:13:57;0.60;;;0.57;;
22107;SDS011;11220;48.812;9.128;2024-03-08T11:18:57;0.55;;;0.55;;
22107;SDS011;11220;48.812;9.128;2024-03-08T11:21:33;1.25;;;0.65;;
22107;SDS011;11220;48.812;9.128;2024-03-08T11:24:02;1.58;;;0.70;;
22107;SDS011;11220;48.812;9.128;2024-03-08T11:26:31;0.50;;;0.40;;
22107;SDS011;11220;48.812;9.128;2024-03-08T11:34:37;0.60;;;0.50;;
22107;SDS011;11220;48.812;9.128;2024-03-08T11:37:04;0.55;;;0.55;;
22107;SDS011;11220;48.812;9.128;2024-03-08T11:39:37;0.50;;;0.50;;
22107;SDS011;11220;48.812;9.128;2024-03-08T11:42:05;0.50;;;0.50;;
22107;SDS011;11220;48.812;9.128;2024-03-08T11:44:31;0.88;;;0.70;;
22107;SDS011;11220;48.812;9.128;2024-03-08T11:46:57;0.57;;;0.50;;
22107;SDS011;11220;48.812;9.128;2024-03-08T11:49:23;0.50;;;0.50;;
22107;SDS011;11220;48.812;9.128;2024-03-08T11:51:51;0.40;;;0.40;;
22107;SDS011;11220;48.812;9.128;2024-03-08T11:54:17;0.50;;;0.50;;
22107;SDS011;11220;48.812;9.128;2024-03-08T11:56:43;0.55;;;0.45;;
22107;SDS011;11220;48.812;9.128;2024-03-08T11:59:12;0.53;;;0.53;;
22107;SDS011;11220;48.812;9.128;2024-03-08T12:01:38;0.85;;;0.57;;
22107;SDS011;11220;48.812;9.128;2024-03-08T12:04:04;0.60;;;0.55;;
22107;SDS011;11220;48.812;9.128;2024-03-08T12:06:37;0.50;;;0.50;;
22107;SDS011;11220;48.812;9.128;2024-03-08T12:09:13;0.57;;;0.57;;
22107;SDS011;11220;48.812;9.128;2024-03-08T12:11:39;0.60;;;0.60;;
22107;SDS011;11220;48.812;9.128;2024-03-08T12:14:06;0.95;;;0.50;;
22107;SDS011;11220;48.812;9.128;2024-03-08T12:16:31;0.60;;;0.60;;
22107;SDS011;11220;48.812;9.128;2024-03-08T12:18:57;0.43;;;0.43;;
22107;SDS011;11220;48.812;9.128;2024-03-08T12:21:23;0.47;;;0.43;;
22107;SDS011;11220;48.812;9.128;2024-03-08T12:26:36;0.70;;;0.70;;
22107;SDS011;11220;48.812;9.128;2024-03-08T12:29:20;0.80;;;0.50;;
22107;SDS011;11220;48.812;9.128;2024-03-08T12:31:52;0.77;;;0.57;;
22107;SDS011;11220;48.812;9.128;2024-03-08T12:34:23;0.70;;;0.68;;
22107;SDS011;11220;48.812;9.128;2024-03-08T12:36:50;0.52;;;0.52;;
22107;SDS011;11220;48.812;9.128;2024-03-08T12:39:19;0.65;;;0.60;;
22107;SDS011;11220;48.812;9.128;2024-03-08T12:41:51;0.50;;;0.50;;
22107;SDS011;11220;48.812;9.128;2024-03-08T12:44:17;0.73;;;0.60;;
22107;SDS011;11220;48.812;9.128;2024-03-08T12:46:44;0.93;;;0.50;;
22107;SDS011;11220;48.812;9.128;2024-03-08T12:49:10;0.50;;;0.50;;
22107;SDS011;11220;48.812;9.128;2024-03-08T12:51:37;0.45;;;0.35;;
22107;SDS011;11220;48.812;9.128;2024-03-08T12:54:04;0.93;;;0.50;;
22107;SDS011;11220;48.812;9.128;2024-03-08T12:56:32;0.70;;;0.50;;
22107;SDS011;11220;48.812;9.128;2024-03-08T12:58:59;0.52;;;0.52;;
22107;SDS011;11220;48.812;9.128;2024-03-08T13:01:25;0.60;;;0.50;;
22107;SDS011;11220;48.812;9.128;2024-03-08T13:03:56;0.88;;;0.60;;
22107;SDS011;11220;48.812;9.128;2024-03-08T13:06:22;0.50;;;0.50;;
22107;SDS011;11220;48.812;9.128;2024-03-08T13:08:49;0.65;;;0.65;;
22107;SDS011;11220;48.812;9.128;2024-03-08T13:11:18;0.45;;;0.43;;
22107;SDS011;11220;48.812;9.128;2024-03-08T13:13:44;0.50;;;0.50;;
22107;SDS011;11220;48.812;9.128;2024-03-08T13:16:11;0.60;;;0.60;;
22107;SDS011;11220;48.812;9.128;2024-03-08T13:18:40;0.90;;;0.70;;
22107;SDS011;11220;48.812;9.128;2024-03-08T13:21:09;0.95;;;0.60;;
22107;SDS011;11220;48.812;9.128;2024-03-08T13:23:36;0.68;;;0.60;;
22107;SDS011;11220;48.812;9.128;2024-03-08T13:26:05;0.80;;;0.70;;
22107;SDS011;11220;48.812;9.128;2024-03-08T13:28:35;0.60;;;0.60;;
22107;SDS011;11220;48.812;9.128;2024-03-08T13:31:04;0.65;;;0.50;;
22107;SDS011;11220;48.812;9.128;2024-03-08T13:33:35;0.50;;;0.50;;
22107;SDS011;11220;48.812;9.128;2024-03-08T13:36:02;0.77;;;0.50;;
22107;SDS011;11220;48.812;9.128;2024-03-08T13:38:31;0.60;;;0.50;;
22107;SDS011;11220;48.812;9.128;2024-03-08T13:40:58;0.50;;;0.50;;
22107;SDS011;11220;48.812;9.128;2024-03-08T13:43:23;0.60;;;0.60;;
22107;SDS011;11220;48.812;9.128;2024-03-08T13:45:49;1.35;;;0.65;;
22107;SDS011;11220;48.812;9.128;2024-03-08T13:48:15;0.90;;;0.60;;
22107;SDS011;11220;48.812;9.128;2024-03-08T13:50:41;0.90;;;0.60;;
22107;SDS011;11220;48.812;9.128;2024-03-08T13:53:06;0.70;;;0.70;;
22107;SDS011;11220;48.812;9.128;2024-03-08T13:55:35;0.47;;;0.47;;
22107;SDS011;11220;48.812;9.128;2024-03-08T13:58:00;0.65;;;0.60;;
22107;SDS011;11220;48.812;9.128;2024-03-08T14:00:26;0.70;;;0.70;;
22107;SDS011;11220;48.812;9.128;2024-03-08T14:02:57;0.50;;;0.50;;
22107;SDS011;11220;48.812;9.128;2024-03-08T14:05:23;1.17;;;0.70;;
22107;SDS011;11220;48.812;9.128;2024-03-08T14:07:49;1.40;;;0.80;;
22107;SDS011;11220;48.812;9.128;2024-03-08T14:10:15;0.65;;;0.65;;
22107;SDS011;11220;48.812;9.128;2024-03-08T14:12:40;0.77;;;0.70;;
22107;SDS011;11220;48.812;9.128;2024-03-08T14:15:09;0.70;;;0.65;;
22107;SDS011;11220;48.812;9.128;2024-03-08T14:17:36;0.70;;;0.70;;
22107;SDS011;11220;48.812;9.128;2024-03-08T14:20:02;0.60;;;0.60;;
22107;SDS011;11220;48.812;9.128;2024-03-08T14:22:28;0.90;;;0.65;;
22107;SDS011;11220;48.812;9.128;2024-03-08T14:24:56;0.93;;;0.80;;
22107;SDS011;11220;48.812;9.128;2024-03-08T14:27:22;0.40;;;0.40;;
22107;SDS011;11220;48.812;9.128;2024-03-08T14:29:47;0.70;;;0.60;;
22107;SDS011;11220;48.812;9.128;2024-03-08T14:32:13;1.05;;;0.75;;
22107;SDS011;11220;48.812;9.128;2024-03-08T14:34:39;0.90;;;0.90;;
22107;SDS011;11220;48.812;9.128;2024-03-08T14:37:05;0.70;;;0.60;;
22107;SDS011;11220;48.812;9.128;2024-03-08T14:39:35;0.90;;;0.73;;
22107;SDS011;11220;48.812;9.128;2024-03-08T14:42:02;0.85;;;0.57;;
22107;SDS011;11220;48.812;9.128;2024-03-08T14:44:28;0.60;;;0.52;;
22107;SDS011;11220;48.812;9.128;2024-03-08T14:46:57;0.80;;;0.70;;
22107;SDS011;11220;48.812;9.128;2024-03-08T14:49:24;0.73;;;0.65;;
22107;SDS011;11220;48.812;9.128;2024-03-08T14:51:52;0.73;;;0.70;;
22107;SDS011;11220;48.812;9.128;2024-03-08T14:54:19;0.80;;;0.60;;
22107;SDS011;11220;48.812;9.128;2024-03-08T14:56:47;0.73;;;0.70;;
22107;SDS011;11220;48.812;9.128;2024-03-08T14:59:14;0.47;;;0.47;;
22107;SDS011;11220;48.812;9.128;2024-03-08T15:01:40;0.80;;;0.50;;
22107;SDS011;11220;48.812;9.128;2024-03-08T15:04:07;0.70;;;0.50;;
22107;SDS011;11220;48.812;9.128;2024-03-08T15:06:35;0.93;;;0.80;;
22107;SDS011;11220;48.812;9.128;2024-03-08T15:09:02;1.00;;;0.77;;